Terminal Aerodrome Forecast
Issued by NWS Sterling, VA

Current Version | Previous Version | Graphics & Text | Print | Product List | Glossary Off
Versions: 1 2 3 4 5 6 7 8 9 10 11 12 13 14 15 16

000
FTUS41 KLWX 241700
TAFMRB
TAF
KMRB 241734Z 2418/2518 31011KT P6SM FEW150 SCT200
     FM242300 30007KT P6SM FEW150 SCT200=

USA.gov is the U.S. government's official web portal to all federal, state and local government web resources and services.